createdAt,value
2019-03-16T00:00:26.051Z,47.76
2019-03-16T00:00:58.181Z,47.81
2019-03-16T00:01:29.535Z,47.79
2019-03-16T00:02:00.785Z,47.83
2019-03-16T00:02:31.987Z,47.71
2019-03-16T00:03:03.190Z,47.69
2019-03-16T00:03:34.400Z,47.69
2019-03-16T00:04:05.607Z,47.66
2019-03-16T00:04:36.803Z,47.68
2019-03-16T00:05:07.996Z,47.75
2019-03-16T00:05:39.194Z,47.62
2019-03-16T00:06:10.409Z,47.60
2019-03-16T00:06:41.648Z,47.60
2019-03-16T00:07:12.856Z,47.50
2019-03-16T00:07:44.072Z,47.47
2019-03-16T00:08:15.277Z,47.55
2019-03-16T00:08:46.468Z,47.40
2019-03-16T00:09:17.735Z,47.49
2019-03-16T00:09:48.970Z,47.29
2019-03-16T00:10:20.172Z,47.27
2019-03-16T00:10:51.369Z,47.25
2019-03-16T00:11:22.590Z,47.18
2019-03-16T00:11:53.873Z,47.08
2019-03-16T00:12:25.091Z,47.11
2019-03-16T00:12:56.282Z,47.11
2019-03-16T00:13:27.545Z,47.08
2019-03-16T00:13:58.710Z,47.07
2019-03-16T00:14:29.918Z,47.12
2019-03-16T00:15:01.109Z,47.12
2019-03-16T00:15:32.306Z,47.14
2019-03-16T00:16:03.507Z,47.17
2019-03-16T00:16:34.720Z,47.20
2019-03-16T00:17:05.977Z,47.20
2019-03-16T00:17:37.195Z,47.24
2019-03-16T00:18:08.388Z,47.24
2019-03-16T00:18:39.586Z,47.31
2019-03-16T00:19:10.784Z,47.28
2019-03-16T00:19:41.980Z,47.31
2019-03-16T00:20:13.173Z,47.20
2019-03-16T00:20:44.385Z,47.21
2019-03-16T00:21:15.590Z,47.20
2019-03-16T00:21:46.825Z,47.19
2019-03-16T00:22:18.056Z,47.20
2019-03-16T00:22:49.263Z,47.15
2019-03-16T00:23:20.456Z,47.05
2019-03-16T00:23:51.654Z,47.03
2019-03-16T00:24:22.875Z,47.00
2019-03-16T00:24:54.077Z,46.91
2019-03-16T00:25:25.475Z,46.88
2019-03-16T00:25:56.685Z,46.83
2019-03-16T00:26:27.915Z,46.86
2019-03-16T00:26:59.106Z,46.82
2019-03-16T00:27:30.377Z,46.88
2019-03-16T00:28:01.591Z,46.94
2019-03-16T00:28:32.800Z,46.94
2019-03-16T00:29:04.005Z,47.03
2019-03-16T00:29:35.217Z,47.06
2019-03-16T00:30:06.410Z,47.07
2019-03-16T00:30:37.612Z,47.10
2019-03-16T00:31:08.807Z,47.16
2019-03-16T00:31:39.997Z,47.11
2019-03-16T00:32:13.684Z,47.18
2019-03-16T00:32:44.176Z,47.23
2019-03-16T00:33:15.398Z,47.34
2019-03-16T00:33:46.592Z,47.36
2019-03-16T00:34:17.829Z,47.32
2019-03-16T00:34:49.017Z,47.36
2019-03-16T00:35:20.218Z,47.36
2019-03-16T00:35:51.411Z,47.50
2019-03-16T00:36:22.658Z,47.53
2019-03-16T00:36:53.866Z,47.60
2019-03-16T00:37:25.097Z,47.63
2019-03-16T00:37:56.306Z,47.65
2019-03-16T00:38:27.510Z,47.72
2019-03-16T00:38:58.717Z,47.79
2019-03-16T00:39:29.955Z,47.93
2019-03-16T00:40:01.156Z,47.98
2019-03-16T00:40:32.354Z,48.12
2019-03-16T00:41:03.954Z,48.09
2019-03-16T00:41:35.144Z,48.22
2019-03-16T00:42:06.345Z,48.79
2019-03-16T00:42:37.536Z,48.39
2019-03-16T00:43:08.750Z,48.44
2019-03-16T00:43:39.938Z,48.58
2019-03-16T00:44:11.178Z,48.74
2019-03-16T00:44:42.379Z,48.43
2019-03-16T00:45:13.587Z,48.55
2019-03-16T00:45:44.776Z,48.68
2019-03-16T00:46:15.987Z,48.56
2019-03-16T00:46:47.216Z,48.62
2019-03-16T00:47:18.410Z,48.69
2019-03-16T00:47:49.602Z,48.75
2019-03-16T00:48:20.783Z,48.79
2019-03-16T00:48:51.976Z,48.80
2019-03-16T00:49:23.227Z,48.97
2019-03-16T00:49:54.442Z,49.00
2019-03-16T00:50:25.700Z,49.07
2019-03-16T00:50:56.919Z,49.55
2019-03-16T00:51:28.130Z,49.18
2019-03-16T00:51:59.326Z,49.16
2019-03-16T00:52:30.511Z,49.33
2019-03-16T00:53:01.742Z,49.47
2019-03-16T00:53:32.951Z,49.52
2019-03-16T00:54:04.145Z,49.48
2019-03-16T00:54:35.387Z,49.54
2019-03-16T00:55:06.623Z,49.59
2019-03-16T00:55:37.798Z,49.43
2019-03-16T00:56:08.994Z,49.52
2019-03-16T00:56:40.194Z,49.54
2019-03-16T00:57:11.406Z,49.70
2019-03-16T00:57:42.590Z,49.57
2019-03-16T00:58:13.803Z,49.76
2019-03-16T00:58:45.016Z,49.71
2019-03-16T00:59:16.223Z,49.65
2019-03-16T00:59:47.463Z,49.21
2019-03-16T01:00:18.674Z,49.04
2019-03-16T01:00:49.878Z,49.15
2019-03-16T01:01:21.077Z,49.22
2019-03-16T01:01:52.285Z,49.18
2019-03-16T01:02:27.254Z,49.25
2019-03-16T01:02:56.405Z,49.23
2019-03-16T01:03:27.612Z,49.18
2019-03-16T01:03:58.807Z,49.14
2019-03-16T01:04:30.096Z,49.05
2019-03-16T01:05:01.358Z,48.93
2019-03-16T01:05:32.577Z,49.04
2019-03-16T01:06:03.785Z,48.94
2019-03-16T01:06:35.359Z,48.82
2019-03-16T01:07:06.584Z,48.87
2019-03-16T01:07:37.774Z,48.84
2019-03-16T01:08:08.991Z,48.99
2019-03-16T01:08:40.239Z,49.09
2019-03-16T01:09:11.453Z,48.67
2019-03-16T01:09:43.687Z,48.82
2019-03-16T01:10:15.128Z,48.93
2019-03-16T01:10:46.343Z,48.91
2019-03-16T01:11:17.551Z,48.65
2019-03-16T01:11:48.739Z,48.63
2019-03-16T01:12:19.982Z,48.73
2019-03-16T01:12:51.168Z,48.59
2019-03-16T01:13:22.370Z,48.78
2019-03-16T01:13:54.535Z,48.64
2019-03-16T01:14:25.777Z,48.74
2019-03-16T01:14:56.981Z,48.69
2019-03-16T01:15:28.188Z,48.69
2019-03-16T01:15:59.395Z,48.76
2019-03-16T01:16:30.586Z,48.81
2019-03-16T01:17:02.253Z,49.34
2019-03-16T01:17:33.500Z,48.80
2019-03-16T01:18:04.697Z,49.13
2019-03-16T01:18:35.892Z,48.55
2019-03-16T01:19:07.117Z,48.58
2019-03-16T01:19:38.313Z,48.58
2019-03-16T01:20:09.511Z,48.62
2019-03-16T01:20:40.761Z,48.62
2019-03-16T01:21:11.977Z,48.77
2019-03-16T01:21:43.185Z,48.76
2019-03-16T01:22:14.398Z,48.82
2019-03-16T01:22:45.600Z,48.82
2019-03-16T01:23:17.813Z,48.77
2019-03-16T01:23:49.161Z,48.92
2019-03-16T01:24:20.353Z,48.89
2019-03-16T01:24:51.536Z,48.98
2019-03-16T01:25:22.748Z,49.00
2019-03-16T01:25:53.955Z,49.12
2019-03-16T01:26:25.196Z,49.15
2019-03-16T01:26:56.401Z,49.23
2019-03-16T01:27:27.602Z,49.30
2019-03-16T01:27:58.808Z,49.39
2019-03-16T01:28:30.066Z,49.40
2019-03-16T01:29:01.330Z,49.34
2019-03-16T01:29:32.568Z,49.47
2019-03-16T01:30:03.762Z,49.30
2019-03-16T01:30:34.969Z,49.28
2019-03-16T01:31:06.171Z,49.28
2019-03-16T01:31:37.383Z,49.38
2019-03-16T01:32:08.594Z,49.38
2019-03-16T01:32:41.059Z,49.48
2019-03-16T01:33:12.377Z,49.44
2019-03-16T01:33:43.674Z,49.41
2019-03-16T01:34:14.880Z,49.40
2019-03-16T01:34:46.111Z,49.46
2019-03-16T01:35:17.297Z,49.42
2019-03-16T01:35:48.501Z,49.61
2019-03-16T01:36:19.700Z,49.56
2019-03-16T01:36:50.899Z,49.46
2019-03-16T01:37:22.105Z,49.36
2019-03-16T01:37:53.303Z,49.44
2019-03-16T01:38:24.549Z,49.13
2019-03-16T01:38:55.793Z,49.28
2019-03-16T01:39:27.044Z,49.27
2019-03-16T01:39:58.260Z,49.37
2019-03-16T01:40:29.465Z,49.30
2019-03-16T01:41:00.668Z,49.37
2019-03-16T01:41:31.887Z,49.45
2019-03-16T01:42:03.087Z,49.45
2019-03-16T01:42:34.275Z,49.17
2019-03-16T01:43:05.539Z,49.38
2019-03-16T01:43:36.736Z,49.22
2019-03-16T01:44:07.979Z,49.42
2019-03-16T01:44:40.109Z,49.19
2019-03-16T01:45:11.476Z,49.21
2019-03-16T01:45:42.664Z,49.26
2019-03-16T01:46:13.879Z,49.21
2019-03-16T01:46:45.088Z,48.83
2019-03-16T01:47:16.300Z,48.95
2019-03-16T01:47:47.506Z,48.98
2019-03-16T01:48:18.719Z,48.96
2019-03-16T01:48:49.926Z,48.72
2019-03-16T01:49:21.119Z,49.43
2019-03-16T01:49:52.306Z,48.59
2019-03-16T01:50:23.557Z,48.79
2019-03-16T01:50:54.801Z,48.43
2019-03-16T01:51:26.003Z,48.43
2019-03-16T01:51:57.206Z,48.37
2019-03-16T01:52:28.418Z,48.41
2019-03-16T01:52:59.609Z,48.60
2019-03-16T01:53:30.801Z,48.33
2019-03-16T01:54:02.008Z,48.14
2019-03-16T01:54:33.261Z,48.18
2019-03-16T01:55:04.440Z,48.27
2019-03-16T01:55:35.630Z,48.23
2019-03-16T01:56:06.814Z,48.12
2019-03-16T01:56:38.020Z,48.26
2019-03-16T01:57:09.219Z,48.10
2019-03-16T01:57:40.405Z,48.27
2019-03-16T01:58:11.601Z,48.12
2019-03-16T01:58:42.800Z,48.12
2019-03-16T01:59:14.012Z,48.18
2019-03-16T01:59:45.257Z,48.07
2019-03-16T02:00:16.460Z,48.00
2019-03-16T02:00:47.674Z,48.08
2019-03-16T02:01:18.883Z,48.03
2019-03-16T02:01:50.090Z,48.13
2019-03-16T02:02:21.309Z,48.14
2019-03-16T02:02:55.732Z,48.24
2019-03-16T02:03:25.498Z,48.25
2019-03-16T02:03:56.690Z,48.31
2019-03-16T02:04:27.892Z,48.42
2019-03-16T02:04:59.124Z,48.49
2019-03-16T02:05:30.352Z,48.55
2019-03-16T02:06:01.529Z,48.58
2019-03-16T02:06:32.734Z,48.70
2019-03-16T02:07:03.931Z,48.85
2019-03-16T02:07:35.139Z,48.90
2019-03-16T02:08:06.342Z,49.04
2019-03-16T02:08:37.574Z,49.05
2019-03-16T02:09:08.772Z,49.18
2019-03-16T02:09:40.061Z,49.20
2019-03-16T02:10:11.308Z,49.18
2019-03-16T02:10:42.509Z,49.36
2019-03-16T02:11:13.709Z,49.44
2019-03-16T02:11:44.917Z,49.58
2019-03-16T02:12:16.126Z,49.60
2019-03-16T02:12:47.315Z,49.57
2019-03-16T02:13:18.508Z,49.69
2019-03-16T02:13:49.715Z,49.69
2019-03-16T02:14:20.911Z,50.10
2019-03-16T02:14:52.126Z,49.90
2019-03-16T02:15:23.364Z,49.89
2019-03-16T02:15:54.567Z,50.14
2019-03-16T02:16:25.769Z,50.15
2019-03-16T02:16:56.958Z,50.40
2019-03-16T02:17:28.155Z,50.43
2019-03-16T02:17:59.356Z,50.53
2019-03-16T02:18:30.558Z,50.48
2019-03-16T02:19:01.764Z,50.60
2019-03-16T02:19:35.839Z,50.78
2019-03-16T02:20:05.883Z,50.93
2019-03-16T02:20:37.148Z,50.98
2019-03-16T02:21:08.387Z,50.89
2019-03-16T02:21:39.587Z,50.90
2019-03-16T02:22:10.845Z,50.92
2019-03-16T02:22:42.046Z,51.01
2019-03-16T02:23:13.263Z,50.93
2019-03-16T02:23:44.523Z,50.85
2019-03-16T02:24:15.735Z,50.75
2019-03-16T02:24:46.940Z,50.73
2019-03-16T02:25:18.139Z,50.74
2019-03-16T02:25:49.378Z,50.76
2019-03-16T02:26:20.633Z,50.71
2019-03-16T02:26:51.838Z,50.70
2019-03-16T02:27:23.039Z,50.60
2019-03-16T02:27:54.249Z,50.62
2019-03-16T02:28:25.447Z,50.57
2019-03-16T02:28:56.663Z,50.57
2019-03-16T02:29:27.892Z,50.42
2019-03-16T02:29:59.107Z,50.32
2019-03-16T02:30:30.315Z,50.33
2019-03-16T02:31:01.519Z,50.25
2019-03-16T02:31:32.738Z,50.40
2019-03-16T02:32:03.994Z,50.12
2019-03-16T02:32:35.197Z,50.10
2019-03-16T02:33:12.994Z,50.00
2019-03-16T02:33:39.336Z,49.87
2019-03-16T02:34:10.531Z,49.85
2019-03-16T02:34:41.753Z,50.04
2019-03-16T02:35:12.960Z,49.94
2019-03-16T02:35:44.319Z,49.81
2019-03-16T02:36:15.543Z,49.80
2019-03-16T02:36:46.746Z,49.92
2019-03-16T02:37:17.943Z,49.83
2019-03-16T02:37:49.134Z,49.84
2019-03-16T02:38:20.346Z,49.81
2019-03-16T02:38:51.602Z,49.87
2019-03-16T02:39:22.801Z,49.83
2019-03-16T02:39:54.033Z,49.85
2019-03-16T02:40:25.236Z,49.89
2019-03-16T02:40:56.425Z,49.95
2019-03-16T02:41:27.644Z,49.91
2019-03-16T02:41:58.878Z,49.96
2019-03-16T02:42:30.063Z,50.00
2019-03-16T02:43:01.262Z,50.03
2019-03-16T02:43:32.503Z,50.14
2019-03-16T02:44:03.705Z,50.18
2019-03-16T02:44:34.904Z,50.24
2019-03-16T02:45:06.149Z,50.30
2019-03-16T02:45:37.352Z,50.32
2019-03-16T02:46:08.633Z,50.34
2019-03-16T02:46:39.851Z,50.43
2019-03-16T02:47:11.952Z,50.47
2019-03-16T02:47:43.157Z,50.53
2019-03-16T02:48:14.361Z,50.64
2019-03-16T02:48:45.570Z,50.64
2019-03-16T02:49:16.766Z,50.69
2019-03-16T02:49:48.007Z,50.91
2019-03-16T02:50:19.240Z,51.00
2019-03-16T02:50:50.441Z,51.09
2019-03-16T02:51:21.635Z,51.13
2019-03-16T02:51:52.842Z,51.16
2019-03-16T02:52:24.051Z,51.20
2019-03-16T02:52:55.251Z,51.25
2019-03-16T02:53:26.461Z,51.38
2019-03-16T02:53:57.771Z,51.39
2019-03-16T02:54:28.975Z,51.44
2019-03-16T02:55:00.589Z,51.50
2019-03-16T02:55:31.950Z,51.80
2019-03-16T02:56:03.152Z,52.47
2019-03-16T02:56:34.405Z,52.06
2019-03-16T02:57:05.607Z,52.99
2019-03-16T02:57:36.799Z,52.29
2019-03-16T02:58:08.006Z,51.59
2019-03-16T02:58:39.211Z,51.39
2019-03-16T02:59:10.421Z,51.24
2019-03-16T02:59:41.625Z,51.31
2019-03-16T03:00:12.860Z,51.39
2019-03-16T03:00:44.119Z,51.38
2019-03-16T03:01:15.312Z,51.34
2019-03-16T03:01:46.550Z,51.36
2019-03-16T03:02:17.735Z,51.37
2019-03-16T03:02:48.983Z,51.47
2019-03-16T03:03:29.277Z,51.59
2019-03-16T03:03:53.120Z,51.64
2019-03-16T03:04:24.327Z,51.82
2019-03-16T03:04:55.516Z,51.91
2019-03-16T03:05:26.716Z,51.96
2019-03-16T03:05:58.046Z,52.02
2019-03-16T03:06:30.170Z,52.23
2019-03-16T03:07:01.368Z,52.30
2019-03-16T03:07:32.566Z,52.34
2019-03-16T03:08:03.844Z,52.46
2019-03-16T03:08:35.020Z,52.49
2019-03-16T03:09:06.217Z,52.50
2019-03-16T03:09:37.395Z,52.56
2019-03-16T03:10:08.597Z,52.63
2019-03-16T03:10:39.793Z,52.70
2019-03-16T03:11:10.991Z,52.61
2019-03-16T03:11:42.202Z,52.64
2019-03-16T03:12:13.384Z,52.73
2019-03-16T03:12:44.626Z,52.81
2019-03-16T03:13:15.859Z,53.03
2019-03-16T03:13:47.066Z,54.06
2019-03-16T03:14:18.259Z,53.04
2019-03-16T03:14:49.448Z,52.86
2019-03-16T03:15:20.651Z,52.74
2019-03-16T03:15:51.843Z,52.96
2019-03-16T03:16:23.039Z,52.64
2019-03-16T03:16:54.246Z,52.50
2019-03-16T03:17:25.487Z,52.47
2019-03-16T03:17:56.671Z,52.44
2019-03-16T03:18:27.918Z,52.55
2019-03-16T03:18:59.107Z,52.70
2019-03-16T03:19:30.341Z,52.53
2019-03-16T03:20:01.545Z,52.47
2019-03-16T03:20:32.743Z,52.54
2019-03-16T03:21:03.934Z,52.75
2019-03-16T03:21:35.121Z,52.85
2019-03-16T03:22:06.364Z,53.26
2019-03-16T03:22:37.573Z,53.96
2019-03-16T03:23:08.769Z,54.46
2019-03-16T03:23:39.966Z,54.13
2019-03-16T03:24:11.170Z,53.66
2019-03-16T03:24:44.604Z,52.74
2019-03-16T03:25:15.345Z,53.15
2019-03-16T03:25:46.574Z,52.83
2019-03-16T03:26:17.782Z,52.91
2019-03-16T03:26:48.979Z,53.13
2019-03-16T03:27:20.171Z,53.21
2019-03-16T03:27:51.383Z,52.93
2019-03-16T03:28:22.588Z,53.36
2019-03-16T03:28:53.782Z,53.38
2019-03-16T03:29:24.978Z,53.42
2019-03-16T03:29:57.519Z,54.21
2019-03-16T03:30:29.108Z,53.86
2019-03-16T03:31:00.287Z,53.67
2019-03-16T03:31:31.517Z,54.22
2019-03-16T03:32:02.708Z,53.95
2019-03-16T03:32:33.900Z,53.43
2019-03-16T03:33:05.124Z,53.15
2019-03-16T03:33:57.863Z,53.43
2019-03-16T03:34:09.252Z,54.00
2019-03-16T03:34:40.466Z,54.14
2019-03-16T03:35:11.681Z,54.01
2019-03-16T03:35:42.885Z,53.96
2019-03-16T03:36:14.077Z,53.97
2019-03-16T03:36:45.288Z,54.21
2019-03-16T03:37:16.525Z,54.39
2019-03-16T03:37:47.738Z,54.49
2019-03-16T03:38:18.935Z,54.61
2019-03-16T03:38:50.121Z,54.70
2019-03-16T03:39:21.316Z,55.39
2019-03-16T03:39:52.510Z,55.25
2019-03-16T03:40:23.713Z,55.12
2019-03-16T03:40:54.925Z,55.02
2019-03-16T03:41:26.119Z,54.98
2019-03-16T03:41:57.322Z,55.14
2019-03-16T03:42:28.569Z,55.27
2019-03-16T03:42:59.771Z,55.25
2019-03-16T03:43:30.984Z,55.24
2019-03-16T03:44:02.574Z,55.34
2019-03-16T03:44:33.776Z,55.42
2019-03-16T03:45:04.985Z,55.54
2019-03-16T03:45:36.182Z,55.99
2019-03-16T03:46:07.367Z,56.13
2019-03-16T03:46:38.609Z,56.00
2019-03-16T03:47:09.814Z,55.80
2019-03-16T03:47:41.016Z,55.76
2019-03-16T03:48:12.375Z,55.77
2019-03-16T03:48:43.588Z,55.87
2019-03-16T03:49:14.783Z,55.89
2019-03-16T03:49:46.018Z,55.93
2019-03-16T03:50:17.231Z,56.06
2019-03-16T03:50:48.431Z,56.31
2019-03-16T03:51:19.634Z,56.92
2019-03-16T03:51:50.837Z,57.02
2019-03-16T03:52:22.037Z,56.51
2019-03-16T03:52:53.258Z,58.36
2019-03-16T03:53:24.494Z,56.69
2019-03-16T03:53:55.696Z,56.06
2019-03-16T03:54:26.902Z,55.91
2019-03-16T03:54:58.111Z,56.12
2019-03-16T03:55:29.314Z,56.17
2019-03-16T03:56:00.523Z,56.15
2019-03-16T03:56:31.730Z,56.38
2019-03-16T03:57:02.927Z,56.16
2019-03-16T03:57:34.162Z,56.13
2019-03-16T03:58:05.380Z,56.14
2019-03-16T03:58:36.563Z,56.40
2019-03-16T03:59:07.768Z,56.41
2019-03-16T03:59:39.014Z,56.48
2019-03-16T04:00:10.220Z,56.64
2019-03-16T04:00:41.444Z,57.26
2019-03-16T04:01:12.647Z,56.92
2019-03-16T04:01:43.845Z,56.62
2019-03-16T04:02:15.081Z,56.57
2019-03-16T04:02:46.281Z,56.69
2019-03-16T04:03:17.485Z,56.52
2019-03-16T04:03:48.688Z,56.34
2019-03-16T04:04:19.885Z,56.24
2019-03-16T04:04:51.093Z,56.52
2019-03-16T04:05:22.298Z,56.40
2019-03-16T04:05:53.507Z,56.23
2019-03-16T04:06:24.700Z,56.36
2019-03-16T04:06:55.891Z,56.29
2019-03-16T04:07:27.132Z,56.38
2019-03-16T04:07:58.339Z,56.48
2019-03-16T04:08:29.566Z,56.15
2019-03-16T04:09:00.815Z,56.40
2019-03-16T04:09:32.029Z,56.34
2019-03-16T04:10:03.226Z,56.26
2019-03-16T04:10:34.423Z,56.20
2019-03-16T04:11:05.624Z,56.30
2019-03-16T04:11:36.817Z,56.61
2019-03-16T04:12:08.015Z,56.78
2019-03-16T04:12:39.218Z,56.14
2019-03-16T04:13:10.450Z,56.01
2019-03-16T04:13:41.633Z,55.55
2019-03-16T04:14:12.877Z,55.43
2019-03-16T04:14:44.091Z,55.61
2019-03-16T04:15:15.283Z,55.53
2019-03-16T04:15:46.488Z,55.48
2019-03-16T04:16:17.713Z,55.63
2019-03-16T04:16:48.911Z,55.76
2019-03-16T04:17:20.124Z,55.55
2019-03-16T04:17:51.309Z,55.61
2019-03-16T04:18:22.506Z,54.94
2019-03-16T04:18:53.709Z,55.43
2019-03-16T04:19:25.010Z,55.24
2019-03-16T04:19:56.245Z,54.81
2019-03-16T04:20:27.461Z,54.55
2019-03-16T04:20:58.660Z,54.66
2019-03-16T04:21:29.858Z,54.59
2019-03-16T04:22:01.061Z,54.67
2019-03-16T04:22:32.259Z,54.78
2019-03-16T04:23:03.476Z,55.42
2019-03-16T04:23:34.690Z,54.43
2019-03-16T04:24:05.884Z,54.36
2019-03-16T04:24:37.141Z,54.40
2019-03-16T04:25:09.794Z,54.28
2019-03-16T04:25:40.991Z,54.19
2019-03-16T04:26:12.226Z,54.23
2019-03-16T04:26:43.421Z,54.34
2019-03-16T04:27:16.616Z,54.30
2019-03-16T04:27:47.550Z,54.26
2019-03-16T04:28:18.776Z,54.41
2019-03-16T04:28:49.978Z,55.07
2019-03-16T04:29:21.177Z,54.16
2019-03-16T04:29:52.439Z,54.29
2019-03-16T04:30:23.640Z,53.82
2019-03-16T04:30:54.839Z,53.74
2019-03-16T04:31:26.051Z,53.66
2019-03-16T04:31:57.329Z,53.63
2019-03-16T04:32:28.544Z,53.62
2019-03-16T04:32:59.776Z,53.86
2019-03-16T04:33:30.968Z,53.95
2019-03-16T04:34:02.167Z,53.96
2019-03-16T04:34:33.370Z,53.99
2019-03-16T04:35:04.617Z,54.07
2019-03-16T04:35:35.807Z,54.13
2019-03-16T04:36:07.041Z,54.10
2019-03-16T04:36:38.253Z,54.00
2019-03-16T04:37:09.450Z,54.02
2019-03-16T04:37:40.646Z,54.11
2019-03-16T04:38:11.961Z,54.04
2019-03-16T04:38:43.116Z,54.09
2019-03-16T04:39:14.329Z,53.68
2019-03-16T04:39:45.524Z,53.72
2019-03-16T04:40:16.784Z,53.94
2019-03-16T04:40:47.979Z,53.73
2019-03-16T04:41:19.187Z,53.68
2019-03-16T04:41:50.383Z,53.69
2019-03-16T04:42:21.589Z,53.79
2019-03-16T04:42:52.795Z,53.76
2019-03-16T04:43:24.002Z,53.92
2019-03-16T04:43:56.169Z,54.14
2019-03-16T04:44:27.377Z,54.29
2019-03-16T04:44:58.595Z,53.86
2019-03-16T04:45:29.853Z,53.38
2019-03-16T04:46:01.132Z,54.02
2019-03-16T04:46:32.335Z,52.61
2019-03-16T04:47:03.545Z,52.46
2019-03-16T04:47:34.792Z,51.87
2019-03-16T04:48:05.988Z,51.44
2019-03-16T04:48:37.209Z,51.11
2019-03-16T04:49:08.482Z,50.68
2019-03-16T04:49:39.685Z,50.61
2019-03-16T04:50:10.893Z,50.28
2019-03-16T04:50:42.090Z,50.12
2019-03-16T04:51:13.284Z,49.89
2019-03-16T04:51:44.495Z,49.73
2019-03-16T04:52:15.706Z,49.34
2019-03-16T04:52:46.942Z,48.84
2019-03-16T04:53:18.139Z,48.70
2019-03-16T04:53:49.335Z,48.54
2019-03-16T04:54:20.527Z,48.45
2019-03-16T04:54:51.737Z,48.30
2019-03-16T04:55:22.951Z,48.22
2019-03-16T04:55:54.192Z,48.63
2019-03-16T04:56:25.396Z,48.79
2019-03-16T04:56:56.598Z,48.84
2019-03-16T04:57:27.803Z,48.65
2019-03-16T04:57:59.017Z,48.89
2019-03-16T04:58:30.220Z,49.22
2019-03-16T04:59:01.443Z,49.45
2019-03-16T04:59:32.675Z,49.61
2019-03-16T05:00:03.892Z,49.56
2019-03-16T05:00:35.091Z,49.74
2019-03-16T05:01:06.289Z,49.89
2019-03-16T05:01:37.490Z,50.00
2019-03-16T05:02:08.687Z,50.10
2019-03-16T05:02:39.948Z,50.25
2019-03-16T05:03:11.154Z,50.36
2019-03-16T05:03:42.350Z,50.43
2019-03-16T05:04:13.549Z,50.48
2019-03-16T05:04:44.737Z,50.51
2019-03-16T05:05:15.936Z,50.79
2019-03-16T05:05:47.144Z,50.86
2019-03-16T05:06:18.372Z,50.91
2019-03-16T05:06:49.568Z,50.96
2019-03-16T05:07:20.788Z,50.98
2019-03-16T05:07:52.036Z,50.98
2019-03-16T05:08:23.226Z,50.92
2019-03-16T05:08:54.461Z,50.87
2019-03-16T05:09:26.759Z,50.93
2019-03-16T05:09:57.952Z,51.00
2019-03-16T05:10:29.193Z,51.28
2019-03-16T05:11:00.401Z,51.19
2019-03-16T05:11:31.599Z,51.10
2019-03-16T05:12:02.818Z,51.22
2019-03-16T05:12:34.057Z,51.35
2019-03-16T05:13:05.269Z,51.38
2019-03-16T05:13:36.470Z,51.33
2019-03-16T05:14:07.675Z,51.38
2019-03-16T05:14:38.912Z,51.39
2019-03-16T05:15:10.114Z,51.37
2019-03-16T05:15:41.316Z,51.34
2019-03-16T05:16:12.512Z,51.49
2019-03-16T05:16:43.792Z,51.30
2019-03-16T05:17:14.991Z,51.56
2019-03-16T05:17:46.251Z,51.22
2019-03-16T05:18:17.442Z,51.07
2019-03-16T05:18:48.652Z,51.18
2019-03-16T05:19:19.873Z,51.59
2019-03-16T05:19:51.081Z,51.57
2019-03-16T05:20:22.290Z,51.57
2019-03-16T05:20:53.488Z,51.50
2019-03-16T05:21:24.762Z,51.48
2019-03-16T05:21:55.956Z,52.29
2019-03-16T05:22:27.161Z,51.76
2019-03-16T05:22:58.360Z,51.54
2019-03-16T05:23:29.585Z,51.58
2019-03-16T05:24:02.836Z,51.61
2019-03-16T05:24:33.734Z,52.41
2019-03-16T05:25:04.946Z,51.66
2019-03-16T05:25:36.141Z,51.35
2019-03-16T05:26:07.352Z,51.23
2019-03-16T05:26:38.595Z,51.05
2019-03-16T05:27:09.799Z,50.89
2019-03-16T05:27:41.007Z,50.62
2019-03-16T05:28:12.274Z,50.66
2019-03-16T05:28:43.489Z,50.72
2019-03-16T05:29:14.701Z,50.78
2019-03-16T05:29:45.893Z,50.72
2019-03-16T05:30:17.092Z,50.58
2019-03-16T05:30:48.285Z,50.34
2019-03-16T05:31:19.490Z,50.33
2019-03-16T05:31:50.943Z,50.45
2019-03-16T05:32:22.177Z,50.61
2019-03-16T05:32:53.389Z,50.78
2019-03-16T05:33:24.633Z,50.88
2019-03-16T05:33:55.833Z,50.91
2019-03-16T05:34:27.028Z,50.72
2019-03-16T05:34:58.238Z,50.71
2019-03-16T05:35:29.446Z,50.42
2019-03-16T05:36:00.635Z,50.34
2019-03-16T05:36:31.854Z,50.42
2019-03-16T05:37:03.079Z,50.16
2019-03-16T05:37:34.784Z,49.92
2019-03-16T05:38:05.999Z,49.96
2019-03-16T05:38:37.227Z,50.13
2019-03-16T05:39:08.425Z,49.96
2019-03-16T05:39:39.612Z,49.53
2019-03-16T05:40:10.759Z,49.51
2019-03-16T05:40:41.910Z,49.50
2019-03-16T05:41:13.063Z,49.41
2019-03-16T05:41:44.238Z,49.58
2019-03-16T05:42:15.400Z,49.56
2019-03-16T05:42:46.602Z,49.32
2019-03-16T05:43:17.761Z,49.36
2019-03-16T05:43:48.953Z,49.46
2019-03-16T05:44:20.088Z,49.56
2019-03-16T05:44:51.246Z,49.46
2019-03-16T05:45:22.415Z,49.46
2019-03-16T05:45:53.572Z,49.58
2019-03-16T05:46:24.736Z,49.14
2019-03-16T05:46:55.898Z,49.19
2019-03-16T05:47:27.055Z,49.18
2019-03-16T05:47:58.279Z,48.81
2019-03-16T05:48:29.444Z,48.69
2019-03-16T05:49:00.594Z,48.91
2019-03-16T05:49:31.753Z,49.09
2019-03-16T05:50:02.942Z,49.12
2019-03-16T05:50:34.149Z,48.93
2019-03-16T05:51:05.306Z,48.89
2019-03-16T05:51:36.499Z,48.98
2019-03-16T05:52:07.632Z,49.09
2019-03-16T05:52:38.798Z,49.28
2019-03-16T05:53:09.955Z,49.14
2019-03-16T05:53:41.112Z,49.37
2019-03-16T05:54:12.261Z,49.28
2019-03-16T05:54:43.420Z,49.29
2019-03-16T05:55:14.568Z,49.38
2019-03-16T05:55:45.773Z,49.19
2019-03-16T05:56:16.935Z,49.17
2019-03-16T05:56:48.087Z,49.29
2019-03-16T05:57:19.241Z,49.33
2019-03-16T05:57:50.391Z,49.37
2019-03-16T05:58:21.566Z,49.35
2019-03-16T05:58:52.713Z,49.33
2019-03-16T05:59:23.877Z,49.22
2019-03-16T05:59:55.066Z,49.33
2019-03-16T06:00:26.216Z,49.68
2019-03-16T06:00:57.434Z,49.23
2019-03-16T06:01:28.595Z,49.17
2019-03-16T06:01:59.770Z,49.00
2019-03-16T06:02:30.931Z,48.70
2019-03-16T06:03:02.093Z,48.65
2019-03-16T06:03:33.269Z,48.68
2019-03-16T06:04:04.507Z,48.76
2019-03-16T06:04:35.662Z,48.65
2019-03-16T06:05:11.102Z,48.48
2019-03-16T06:05:39.715Z,48.39
2019-03-16T06:06:11.881Z,48.38
2019-03-16T06:06:43.039Z,48.37
2019-03-16T06:07:14.222Z,48.46
2019-03-16T06:07:45.378Z,48.40
2019-03-16T06:08:16.556Z,48.32
2019-03-16T06:08:47.705Z,48.16
2019-03-16T06:09:18.881Z,48.07
2019-03-16T06:09:50.051Z,48.23
2019-03-16T06:10:21.604Z,48.38
2019-03-16T06:10:52.798Z,48.52
2019-03-16T06:11:23.962Z,49.73
2019-03-16T06:11:55.126Z,48.90
2019-03-16T06:12:29.435Z,48.04
2019-03-16T06:13:00.596Z,47.50
2019-03-16T06:13:31.768Z,47.06
2019-03-16T06:14:02.920Z,46.99
2019-03-16T06:14:34.085Z,47.18
2019-03-16T06:15:05.230Z,46.48
2019-03-16T06:15:36.389Z,46.46
2019-03-16T06:16:07.556Z,46.34
2019-03-16T06:16:38.714Z,46.00
2019-03-16T06:17:09.893Z,45.83
2019-03-16T06:17:41.110Z,45.62
2019-03-16T06:18:13.403Z,45.53
2019-03-16T06:18:44.563Z,45.49
2019-03-16T06:19:15.731Z,45.35
2019-03-16T06:19:46.906Z,45.28
2019-03-16T06:20:18.068Z,45.01
2019-03-16T06:20:49.227Z,44.64
2019-03-16T06:21:20.388Z,44.67
2019-03-16T06:21:51.545Z,44.68
2019-03-16T06:22:22.702Z,44.54
2019-03-16T06:22:53.881Z,44.44
2019-03-16T06:23:25.038Z,44.30
2019-03-16T06:23:56.245Z,44.04
2019-03-16T06:24:28.220Z,43.87
2019-03-16T06:24:59.613Z,43.78
2019-03-16T06:25:30.784Z,43.44
2019-03-16T06:26:01.937Z,43.20
2019-03-16T06:26:33.098Z,43.16
2019-03-16T06:27:04.305Z,43.24
2019-03-16T06:27:35.468Z,43.43
2019-03-16T06:28:06.654Z,43.36
2019-03-16T06:28:37.832Z,43.43
2019-03-16T06:29:08.994Z,43.54
2019-03-16T06:29:40.188Z,43.67
2019-03-16T06:30:11.339Z,43.77
2019-03-16T06:30:42.539Z,43.36
2019-03-16T06:31:13.741Z,43.44
2019-03-16T06:31:44.903Z,43.58
2019-03-16T06:32:16.062Z,43.76
2019-03-16T06:32:47.219Z,43.84
2019-03-16T06:33:18.446Z,44.13
2019-03-16T06:33:49.654Z,44.16
2019-03-16T06:34:20.783Z,44.01
2019-03-16T06:34:51.942Z,43.95
2019-03-16T06:35:25.005Z,44.34
2019-03-16T06:35:56.011Z,44.39
2019-03-16T06:36:27.151Z,44.55
2019-03-16T06:36:58.319Z,44.60
2019-03-16T06:37:29.543Z,44.64
2019-03-16T06:38:00.753Z,44.85
2019-03-16T06:38:31.939Z,44.89
2019-03-16T06:39:03.095Z,44.96
2019-03-16T06:39:34.264Z,44.97
2019-03-16T06:40:05.523Z,45.12
2019-03-16T06:40:36.682Z,45.12
2019-03-16T06:41:07.859Z,45.26
2019-03-16T06:41:39.005Z,45.09
2019-03-16T06:42:10.187Z,45.05
2019-03-16T06:42:41.328Z,45.07